Time;durP1;ratioP1;P1;durP2;ratioP2;P2;SDS_P1;SDS_P2;PMS_P1;PMS_P2;Temp;Humidity;BMP_temperature;BMP_pressure;BME280_temperature;BME280_humidity;BME280_pressure;Samples;Min_cycle;Max_cycle;Signal;HPM_P1;HPM_P2
2023/06/02 00:00:12;;;;;;;6.25;3.53;;;;;;;19.52;38.33;99728.50;1087374;47;20031;-85
2023/06/02 00:01:17;;;;;;;6.25;3.47;;;;;;;19.45;38.66;99721.22;1087267;54;20038;-84
2023/06/02 00:02:22;;;;;;;6.03;3.90;;;;;;;19.48;38.62;99723.50;1087599;54;20034;-85
2023/06/02 00:03:29;;;;;;;4.93;3.08;;;;;;;19.59;38.09;99722.03;1087591;54;20034;-84
2023/06/02 00:04:37;;;;;;;5.68;3.10;;;;;;;19.57;38.27;99729.53;1087507;54;20034;-86
2023/06/02 00:05:38;;;;;;;5.25;3.22;;;;;;;19.65;38.35;99731.16;1087565;54;20030;-85
2023/06/02 00:06:45;;;;;;;6.85;3.67;;;;;;;19.57;38.38;99731.41;1087578;54;20035;-83
2023/06/02 00:07:48;;;;;;;6.05;3.28;;;;;;;19.60;38.52;99717.44;1087549;54;20035;-85
2023/06/02 00:08:52;;;;;;;5.70;3.08;;;;;;;19.59;38.52;99722.03;1087519;54;20054;-84
2023/06/02 00:09:55;;;;;;;5.22;3.00;;;;;;;19.55;38.42;99725.38;1087302;47;20055;-84
2023/06/02 00:11:00;;;;;;;5.95;3.50;;;;;;;19.48;39.12;99726.19;1087450;54;20068;-86
2023/06/02 00:12:02;;;;;;;5.28;3.40;;;;;;;19.50;38.85;99726.00;1087506;54;20031;-86
2023/06/02 00:13:06;;;;;;;5.72;3.28;;;;;;;19.53;39.06;99727.47;1089595;39;20369;-85
2023/06/02 00:14:11;;;;;;;6.45;3.45;;;;;;;19.59;39.02;99727.44;1087287;47;20027;-85
2023/06/02 00:15:15;;;;;;;5.50;3.03;;;;;;;19.59;38.92;99727.44;1087342;47;20034;-86
2023/06/02 00:16:16;;;;;;;4.82;2.83;;;;;;;19.59;39.20;99730.16;1087328;54;20086;-86
2023/06/02 00:17:20;;;;;;;6.32;2.75;;;;;;;19.47;39.37;99729.94;1087304;47;20030;-86
2023/06/02 00:18:22;;;;;;;4.72;2.95;;;;;;;19.49;39.50;99730.59;1087112;47;20026;-86
2023/06/02 00:19:30;;;;;;;5.05;3.17;;;;;;;19.51;39.31;99729.53;1087296;54;20070;-84
2023/06/02 00:20:31;;;;;;;6.15;3.67;;;;;;;19.48;39.67;99725.38;1087427;54;20027;-85
2023/06/02 00:21:36;;;;;;;6.43;3.40;;;;;;;19.46;39.54;99725.56;1087528;54;20038;-85
2023/06/02 00:22:38;;;;;;;5.57;3.25;;;;;;;19.45;39.73;99729.34;1087158;54;20041;-86
2023/06/02 00:23:42;;;;;;;5.70;3.75;;;;;;;19.48;39.70;99731.63;1087173;54;20065;-85
2023/06/02 00:24:44;;;;;;;5.57;3.30;;;;;;;19.37;39.99;99729.53;1087314;54;20030;-86
2023/06/02 00:25:48;;;;;;;6.28;3.58;;;;;;;19.39;40.05;99732.88;1087505;54;20098;-84
2023/06/02 00:26:50;;;;;;;6.13;3.28;;;;;;;19.37;39.75;99729.53;1087283;47;20030;-86
2023/06/02 00:27:54;;;;;;;6.13;3.05;;;;;;;19.29;40.15;99733.31;1087339;47;20031;-86
2023/06/02 00:28:58;;;;;;;5.97;3.50;;;;;;;19.30;40.11;99736.84;1087247;47;20027;-86
2023/06/02 00:30:03;;;;;;;6.45;3.75;;;;;;;19.29;40.33;99740.59;1087249;47;20051;-85
2023/06/02 00:31:08;;;;;;;6.03;3.80;;;;;;;19.30;39.94;99734.16;1087330;54;20440;-84
2023/06/02 00:32:09;;;;;;;5.78;3.28;;;;;;;19.32;39.82;99732.06;1087281;47;20045;-84
2023/06/02 00:33:13;;;;;;;7.07;3.80;;;;;;;19.31;40.21;99738.53;1087251;47;20037;-85
2023/06/02 00:34:14;;;;;;;4.50;2.67;;;;;;;19.32;40.08;99730.19;1087237;54;20031;-86
2023/06/02 00:35:18;;;;;;;7.65;3.35;;;;;;;19.34;40.03;99738.13;1087598;54;20062;-85
2023/06/02 00:36:20;;;;;;;5.10;3.03;;;;;;;19.35;40.27;99728.94;1087151;47;20034;-85
2023/06/02 00:37:24;;;;;;;5.30;3.40;;;;;;;19.36;40.38;99735.19;1087294;46;20030;-85
2023/06/02 00:38:25;;;;;;;5.80;3.00;;;;;;;19.28;40.72;99738.94;1087360;47;20049;-86
2023/06/02 00:39:29;;;;;;;6.28;3.53;;;;;;;19.12;40.75;99738.31;1087274;47;20098;-84
2023/06/02 00:40:31;;;;;;;5.88;3.13;;;;;;;19.16;40.64;99736.88;1087279;47;20063;-84
2023/06/02 00:41:36;;;;;;;5.68;3.30;;;;;;;19.13;41.01;99741.84;1087217;54;21128;-86
2023/06/02 00:42:38;;;;;;;5.50;3.38;;;;;;;19.10;41.31;99745.00;1087374;46;20463;-84
2023/06/02 00:43:42;;;;;;;5.93;3.50;;;;;;;19.12;41.21;99742.94;1087275;47;20034;-85
2023/06/02 00:44:43;;;;;;;5.18;3.33;;;;;;;19.10;41.39;99745.00;1087354;54;20042;-85
2023/06/02 00:45:49;;;;;;;5.53;3.17;;;;;;;19.12;41.35;99743.75;1087449;54;20041;-84
2023/06/02 00:46:51;;;;;;;6.95;3.38;;;;;;;19.10;41.54;99751.25;1087411;54;20118;-85
2023/06/02 00:47:55;;;;;;;5.78;3.30;;;;;;;19.10;41.21;99745.81;1087230;47;20038;-86
2023/06/02 00:48:57;;;;;;;6.18;3.40;;;;;;;19.08;41.45;99747.91;1087249;47;20098;-85
2023/06/02 00:50:01;;;;;;;5.75;3.22;;;;;;;19.07;41.48;99750.81;1087065;47;20041;-85
2023/06/02 00:51:04;;;;;;;5.88;3.33;;;;;;;19.07;41.79;99748.97;1087197;47;20031;-87
2023/06/02 00:52:09;;;;;;;7.07;3.40;;;;;;;19.04;41.60;99743.97;1087299;47;20087;-86
2023/06/02 00:53:11;;;;;;;5.35;3.35;;;;;;;18.99;41.87;99738.31;1087269;47;20102;-85
2023/06/02 00:54:16;;;;;;;7.07;3.85;;;;;;;18.97;42.13;99743.13;1087420;54;20066;-86
2023/06/02 00:55:17;;;;;;;6.25;3.30;;;;;;;18.95;41.84;99745.19;1087319;47;20031;-85
2023/06/02 00:56:23;;;;;;;6.57;3.45;;;;;;;18.87;42.28;99748.91;1087365;54;20042;-85
2023/06/02 00:57:28;;;;;;;7.07;4.00;;;;;;;18.67;43.03;99749.69;1087392;47;20126;-86
2023/06/02 00:58:37;;;;;;;5.85;3.53;;;;;;;18.71;42.82;99742.00;1087167;47;20087;-85
2023/06/02 00:59:39;;;;;;;6.78;3.75;;;;;;;18.70;42.70;99745.78;1087283;47;20030;-85
2023/06/02 01:00:45;;;;;;;6.28;3.45;;;;;;;18.67;43.18;99746.19;1087269;47;20075;-83
2023/06/02 01:01:49;;;;;;;5.57;3.38;;;;;;;18.69;42.81;99741.41;1087016;54;20124;-84
2023/06/02 01:02:53;;;;;;;6.38;3.65;;;;;;;18.62;42.91;99744.09;1087529;54;20034;-84
2023/06/02 01:03:54;;;;;;;7.05;3.88;;;;;;;18.55;43.29;99744.06;1087426;54;20060;-84
2023/06/02 01:05:00;;;;;;;8.05;4.05;;;;;;;18.58;43.38;99747.41;1087259;47;20034;-84
2023/06/02 01:06:02;;;;;;;6.70;3.60;;;;;;;18.48;43.40;99751.34;1087285;54;20054;-85
2023/06/02 01:07:08;;;;;;;6.30;3.47;;;;;;;18.44;43.57;99739.25;1087501;54;20059;-84
2023/06/02 01:08:11;;;;;;;6.30;3.72;;;;;;;18.41;43.87;99753.19;1087419;47;20057;-85
2023/06/02 01:09:16;;;;;;;7.05;3.97;;;;;;;18.37;44.10;99746.50;1087205;47;20026;-85
2023/06/02 01:10:18;;;;;;;6.28;3.72;;;;;;;18.31;43.82;99750.03;1087272;47;20047;-86
2023/06/02 01:11:22;;;;;;;6.57;3.80;;;;;;;18.32;44.10;99754.41;1087222;54;20030;-85
2023/06/02 01:12:24;;;;;;;6.05;3.67;;;;;;;18.20;44.45;99751.44;1087365;47;20076;-85
2023/06/02 01:13:28;;;;;;;6.97;3.90;;;;;;;18.11;44.62;99745.38;1087317;54;20034;-85
2023/06/02 01:14:29;;;;;;;7.93;4.03;;;;;;;18.10;44.79;99746.41;1087397;54;20030;-86
2023/06/02 01:15:33;;;;;;;6.35;3.78;;;;;;;18.11;44.73;99742.69;1087183;47;20030;-86
2023/06/02 01:16:35;;;;;;;6.78;3.83;;;;;;;18.11;44.57;99748.09;1087243;47;20030;-86
2023/06/02 01:17:45;;;;;;;7.00;3.65;;;;;;;18.10;44.71;99746.41;1087351;46;20042;-85
2023/06/02 01:18:49;;;;;;;6.20;3.50;;;;;;;18.05;45.08;99748.88;1087303;47;20059;-86
2023/06/02 01:19:53;;;;;;;6.97;4.00;;;;;;;17.98;45.07;99753.44;1087319;47;20030;-85
2023/06/02 01:20:57;;;;;;;7.72;4.85;;;;;;;17.83;45.81;99750.81;1087456;47;20086;-84
2023/06/02 01:22:04;;;;;;;7.05;4.10;;;;;;;17.87;45.48;99747.50;1087198;46;20062;-84
2023/06/02 01:23:15;;;;;;;7.15;4.03;;;;;;;17.85;45.71;99752.31;1087379;47;20046;-86
2023/06/02 01:24:22;;;;;;;6.55;4.20;;;;;;;17.82;46.01;99755.41;1087389;47;20050;-86
2023/06/02 01:25:26;;;;;;;8.25;3.95;;;;;;;17.83;45.68;99757.06;1087254;47;20074;-85
2023/06/02 01:26:34;;;;;;;6.63;3.92;;;;;;;17.83;45.45;99756.22;1087611;47;20014;-86
2023/06/02 01:27:36;;;;;;;8.40;4.10;;;;;;;17.78;45.99;99754.97;1087441;47;20027;-84
2023/06/02 01:28:40;;;;;;;6.65;3.88;;;;;;;17.78;45.71;99754.13;1087288;54;20034;-86
2023/06/02 01:29:42;;;;;;;7.03;3.88;;;;;;;17.68;46.17;99759.91;1087322;47;20051;-86
2023/06/02 01:30:47;;;;;;;7.13;3.95;;;;;;;17.72;46.09;99754.94;1087307;54;20038;-85
2023/06/02 01:31:52;;;;;;;8.05;4.03;;;;;;;17.69;46.22;99761.56;1087311;47;20029;-85
2023/06/02 01:33:06;;;;;;;7.05;4.20;;;;;;;17.70;46.47;99757.84;1087412;54;20056;-85
2023/06/02 01:34:13;;;;;;;7.88;3.97;;;;;;;17.69;46.23;99763.41;1087580;54;20526;-84
2023/06/02 01:35:21;;;;;;;7.68;4.18;;;;;;;17.63;46.46;99762.34;1087477;54;20030;-86
2023/06/02 01:36:24;;;;;;;5.72;3.42;;;;;;;17.67;46.19;99757.38;1087439;54;20034;-86
2023/06/02 01:37:31;;;;;;;7.07;3.75;;;;;;;17.63;46.59;99756.94;1087264;47;20048;-85
2023/06/02 01:38:35;;;;;;;6.72;3.55;;;;;;;17.50;46.78;99768.50;1087509;54;20064;-85
2023/06/02 01:39:43;;;;;;;7.22;3.65;;;;;;;17.51;47.12;99764.75;1087367;46;20031;-86
2023/06/02 01:40:46;;;;;;;7.63;4.65;;;;;;;17.41;47.49;99769.69;1087245;47;20038;-84
2023/06/02 01:41:54;;;;;;;6.80;3.80;;;;;;;17.45;47.23;99766.38;1087153;47;20010;-86
2023/06/02 01:42:58;;;;;;;8.73;3.83;;;;;;;17.50;47.11;99768.50;1087395;47;20007;-85
2023/06/02 01:44:05;;;;;;;6.70;4.05;;;;;;;17.54;46.96;99769.78;1087262;47;20026;-84
2023/06/02 01:45:09;;;;;;;7.75;4.00;;;;;;;17.52;47.01;99761.03;1087344;47;20076;-84
2023/06/02 01:46:16;;;;;;;6.63;3.92;;;;;;;17.50;46.94;99773.06;1087168;54;20102;-84
2023/06/02 01:47:18;;;;;;;7.20;4.40;;;;;;;17.39;47.36;99766.34;1087859;54;20026;-86
2023/06/02 01:48:22;;;;;;;7.22;4.10;;;;;;;17.44;47.45;99769.28;1087464;54;20038;-84
2023/06/02 01:49:24;;;;;;;6.63;3.80;;;;;;;17.44;47.22;99775.53;1087420;54;20061;-85
2023/06/02 01:50:28;;;;;;;6.07;4.10;;;;;;;17.39;47.39;99771.72;1087238;47;20109;-87
2023/06/02 01:51:30;;;;;;;6.35;3.90;;;;;;;17.43;47.23;99770.31;1087193;47;20027;-85
2023/06/02 01:52:34;;;;;;;6.22;3.55;;;;;;;17.47;47.29;99774.31;1087352;47;20054;-85
2023/06/02 01:53:38;;;;;;;6.03;3.90;;;;;;;17.45;47.25;99776.38;1087394;54;20035;-83
2023/06/02 01:54:43;;;;;;;5.00;3.22;;;;;;;17.41;47.23;99769.69;1087251;54;20037;-84
2023/06/02 01:55:49;;;;;;;5.80;3.83;;;;;;;17.46;47.35;99780.75;1087245;47;20094;-85
2023/06/02 01:56:50;;;;;;;6.63;3.78;;;;;;;17.42;47.16;99783.00;1087281;47;20037;-83
2023/06/02 01:57:54;;;;;;;6.47;4.00;;;;;;;17.38;47.54;99780.91;1087220;46;20038;-84
2023/06/02 01:58:57;;;;;;;6.97;3.92;;;;;;;17.35;47.48;99782.09;1087346;54;20026;-83
2023/06/02 02:00:04;;;;;;;6.55;4.15;;;;;;;17.29;47.83;99772.91;1087528;54;20082;-86
2023/06/02 02:01:17;;;;;;;8.75;4.60;;;;;;;17.08;48.36;99784.59;1087524;54;20026;-85
2023/06/02 02:02:18;;;;;;;8.38;4.85;;;;;;;17.10;48.75;99784.38;1087386;54;20037;-85
2023/06/02 02:03:22;;;;;;;6.85;4.28;;;;;;;16.98;48.92;99779.53;1087711;54;20034;-84
2023/06/02 02:04:23;;;;;;;6.90;4.35;;;;;;;17.04;48.56;99782.47;1087477;54;20033;-83
2023/06/02 02:05:27;;;;;;;7.38;4.70;;;;;;;17.06;48.72;99777.72;1087487;54;20059;-84
2023/06/02 02:06:29;;;;;;;6.35;4.50;;;;;;;17.11;48.71;99777.94;1087495;54;20033;-85
2023/06/02 02:07:35;;;;;;;7.07;4.28;;;;;;;17.14;48.33;99780.28;1087375;54;20054;-84
2023/06/02 02:08:36;;;;;;;7.07;4.53;;;;;;;16.98;48.85;99779.53;1087501;54;20026;-85
2023/06/02 02:09:42;;;;;;;8.20;4.43;;;;;;;17.00;48.94;99780.13;1087476;54;20033;-85
2023/06/02 02:10:46;;;;;;;6.97;4.70;;;;;;;16.93;49.46;99783.78;1087573;54;20079;-82
2023/06/02 02:11:50;;;;;;;8.27;4.88;;;;;;;16.89;49.35;99783.34;1087436;54;20046;-83
2023/06/02 02:13:00;;;;;;;6.43;4.60;;;;;;;16.87;49.70;99782.69;1087019;47;20038;-85
2023/06/02 02:14:04;;;;;;;7.40;4.55;;;;;;;16.86;49.55;99783.72;1087124;54;20027;-85
2023/06/02 02:15:10;;;;;;;6.82;4.22;;;;;;;16.91;49.31;99786.66;1087444;54;20026;-85
2023/06/02 02:16:12;;;;;;;6.75;4.22;;;;;;;16.88;49.43;99786.22;1087416;47;20031;-84
2023/06/02 02:17:16;;;;;;;7.90;4.40;;;;;;;16.82;49.86;99785.97;1087313;47;20027;-84
2023/06/02 02:18:24;;;;;;;10.20;4.70;;;;;;;16.72;50.18;99795.41;1087432;47;20019;-84
2023/06/02 02:19:31;;;;;;;8.02;4.97;;;;;;;16.72;50.21;99795.41;1087348;47;20041;-84
2023/06/02 02:20:35;;;;;;;8.20;4.82;;;;;;;16.76;50.12;99786.75;1087610;54;20034;-85
2023/06/02 02:21:36;;;;;;;6.95;4.47;;;;;;;16.71;50.19;99786.47;1087350;47;20052;-85
2023/06/02 02:22:41;;;;;;;6.47;4.20;;;;;;;16.75;50.16;99792.31;1087824;47;20038;-86
2023/06/02 02:23:45;;;;;;;7.07;4.32;;;;;;;16.76;50.00;99794.00;1087567;54;20026;-85
2023/06/02 02:24:47;;;;;;;9.13;5.13;;;;;;;16.56;50.82;99794.63;1087854;47;20029;-87
2023/06/02 02:25:54;;;;;;;6.13;3.85;;;;;;;16.66;50.69;99792.44;1087572;54;20030;-85
2023/06/02 02:26:57;;;;;;;7.45;4.90;;;;;;;16.64;50.76;99799.88;1087804;54;20013;-86
2023/06/02 02:28:01;;;;;;;8.25;4.32;;;;;;;16.64;50.76;99791.78;1087855;47;20026;-86
2023/06/02 02:29:03;;;;;;;7.88;4.25;;;;;;;16.62;50.77;99793.00;1087773;47;20027;-85
2023/06/02 02:30:08;;;;;;;8.90;4.90;;;;;;;16.60;50.84;99793.22;1087541;47;20056;-85
2023/06/02 05:24:45;;;;;;;7.40;4.57;;;;;;;14.18;63.18;99899.50;1067488;54;21036;31
2023/06/02 07:05:35;;;;;;;8.82;5.97;;;;;;;15.70;58.21;99917.22;1088686;47;20007;-87
2023/06/02 09:41:05;;;;;;;5.93;3.70;;;;;;;22.58;39.98;99869.84;1085226;54;20042;-86
2023/06/02 09:42:12;;;;;;;6.22;3.33;;;;;;;22.90;39.17;99871.56;1087748;47;20026;-83
2023/06/02 09:43:17;;;;;;;13.20;4.10;;;;;;;22.35;40.31;99872.41;1087648;54;20056;-81
2023/06/02 09:44:19;;;;;;;7.63;4.10;;;;;;;21.99;41.08;99874.88;1087935;54;20052;-82
2023/06/02 10:04:28;;;;;;;7.55;4.40;;;;;;;23.09;38.07;99847.78;1080308;54;20042;-86
2023/06/02 10:05:30;;;;;;;6.28;3.50;;;;;;;23.11;38.13;99850.28;1088039;47;20014;-86
2023/06/02 10:07:20;;;;;;;4.85;3.10;;;;;;;23.25;37.80;99848.22;1087460;46;20037;-87
2023/06/02 10:08:38;;;;;;;6.05;3.70;;;;;;;23.26;37.85;99852.59;1087581;54;20026;-88
2023/06/02 10:10:58;;;;;;;6.30;3.60;;;;;;;22.77;38.30;99858.91;1088356;54;20037;-87
2023/06/02 10:16:01;;;;;;;5.40;3.30;;;;;;;23.48;37.65;99848.28;1081613;31;21438;31
2023/06/02 10:19:11;;;;;;;6.80;3.13;;;;;;;23.85;36.46;99833.59;1081456;54;20067;31
2023/06/02 10:22:48;;;;;;;7.82;4.53;;;;;;;24.37;35.38;99835.53;1072597;54;20034;-88
2023/06/02 10:24:09;;;;;;;6.53;4.07;;;;;;;24.74;34.97;99829.78;1086756;47;20045;-88
2023/06/02 10:25:22;;;;;;;6.15;3.50;;;;;;;24.41;35.34;99836.72;1082114;46;20041;31
2023/06/02 10:29:16;;;;;;;8.00;3.92;;;;;;;23.61;36.07;99838.22;1086570;54;20023;31
2023/06/02 10:30:40;;;;;;;6.35;3.55;;;;;;;23.81;35.86;99835.94;1087180;47;20061;-84
2023/06/02 10:33:03;;;;;;;5.82;3.20;;;;;;;23.92;35.49;99830.72;1087326;54;20030;-85
2023/06/02 10:34:45;;;;;;;9.32;3.25;;;;;;;24.26;34.53;99830.97;1087552;54;20059;-85
2023/06/02 10:36:01;;;;;;;5.43;3.75;;;;;;;24.37;33.85;99826.53;1087669;54;20010;-87
2023/06/02 10:39:51;;;;;;;4.38;2.70;;;;;;;24.75;33.62;99827.84;1087803;54;20021;-85
2023/06/02 10:42:12;;;;;;;6.72;3.80;;;;;;;24.74;34.39;99821.56;1086628;54;20083;-86
2023/06/02 10:45:44;;;;;;;6.35;3.50;;;;;;;24.39;35.73;99822.47;1082348;54;20010;31
2023/06/02 10:49:57;;;;;;;5.47;3.10;;;;;;;24.09;34.94;99819.94;1086995;47;20042;-85
2023/06/02 10:50:59;;;;;;;5.85;3.08;;;;;;;24.69;34.54;99816.00;1087507;54;20030;-84
2023/06/02 10:52:09;;;;;;;4.78;3.15;;;;;;;24.82;33.75;99816.78;1087218;47;20035;-86
2023/06/02 10:53:10;;;;;;;5.35;2.72;;;;;;;24.96;34.07;99807.19;1087311;47;20011;-85
2023/06/02 10:55:33;;;;;;;5.25;3.03;;;;;;;24.58;34.03;99806.75;1087141;47;20042;-87
2023/06/02 10:58:07;;;;;;;6.00;3.20;;;;;;;24.54;33.89;99807.47;1081912;54;20078;31
2023/06/02 11:00:45;;;;;;;6.05;3.60;;;;;;;25.27;32.92;99810.47;1087600;54;20015;-84
2023/06/02 11:01:53;;;;;;;5.00;3.53;;;;;;;25.52;33.06;99803.75;1087508;47;20042;-84
2023/06/02 11:04:00;;;;;;;5.32;3.00;;;;;;;25.60;32.61;99806.06;1087045;54;20055;-83
2023/06/02 11:05:27;;;;;;;5.43;2.92;;;;;;;25.49;32.76;99804.28;1086725;51;20129;-85
2023/06/02 11:06:35;;;;;;;7.13;3.05;;;;;;;25.48;32.36;99797.16;1087104;47;20027;-85
2023/06/02 11:08:57;;;;;;;4.70;3.00;;;;;;;25.54;32.83;99798.88;1085639;54;20015;-87
2023/06/02 11:11:42;;;;;;;8.20;3.10;;;;;;;24.13;34.69;99818.41;1086585;54;21566;-83
2023/06/02 11:14:03;;;;;;;6.75;3.58;;;;;;;24.23;34.79;99820.50;1087654;54;20026;-85
2023/06/02 11:15:17;;;;;;;8.13;3.30;;;;;;;24.11;34.78;99823.25;1087458;47;20039;-84
2023/06/02 11:16:18;;;;;;;6.13;3.72;;;;;;;23.96;35.24;99818.28;1087228;47;20022;-86
2023/06/02 11:17:33;;;;;;;5.47;3.10;;;;;;;24.05;34.94;99822.31;1086862;54;20038;-84
2023/06/02 11:18:40;;;;;;;7.15;3.75;;;;;;;23.92;34.29;99815.19;1086956;47;20052;-83
2023/06/02 11:19:53;;;;;;;5.53;3.22;;;;;;;23.99;34.09;99813.19;1087211;47;20077;-84
2023/06/02 11:20:59;;;;;;;6.03;3.10;;;;;;;24.16;34.11;99809.72;1087730;39;20865;-83
2023/06/02 11:24:29;;;;;;;5.28;2.88;;;;;;;23.96;34.64;99810.09;1086955;54;20115;-84
2023/06/02 11:25:33;;;;;;;5.78;3.60;;;;;;;23.90;34.37;99813.78;1087192;47;20014;-85
2023/06/02 12:18:30;;;;;;;5.72;3.20;;;;;;;22.94;36.40;99782.00;1087299;54;21189;-84
2023/06/02 12:19:31;;;;;;;5.05;2.92;;;;;;;22.88;36.68;99786.47;1087850;54;20026;-83
2023/06/02 12:20:43;;;;;;;6.15;3.35;;;;;;;22.94;36.20;99785.53;1087753;54;20048;-84
2023/06/02 12:21:46;;;;;;;6.75;3.08;;;;;;;22.97;36.29;99786.97;1087859;46;20110;-84
2023/06/02 12:25:21;;;;;;;4.82;2.65;;;;;;;23.37;34.57;99786.34;1087890;54;20010;-86
2023/06/02 12:26:26;;;;;;;4.97;2.72;;;;;;;23.48;35.09;99774.63;1087671;46;20023;-84
2023/06/02 12:27:27;;;;;;;6.80;2.80;;;;;;;23.64;34.78;99777.69;1087961;46;20054;-84
2023/06/02 12:28:31;;;;;;;6.97;3.30;;;;;;;23.47;35.31;99774.88;1087483;54;20015;-83
2023/06/02 12:29:38;;;;;;;8.35;3.33;;;;;;;23.55;35.30;99773.66;1087496;54;20033;-83
2023/06/02 12:30:43;;;;;;;5.25;3.17;;;;;;;23.39;35.24;99769.75;1087502;54;20037;-83
2023/06/02 12:32:00;;;;;;;6.45;3.10;;;;;;;23.47;34.58;99769.41;1087560;54;20026;-82
2023/06/02 12:33:10;;;;;;;9.10;2.95;;;;;;;23.39;35.05;99773.31;1087557;54;20031;-81
2023/06/02 12:34:17;;;;;;;5.05;2.85;;;;;;;23.43;35.32;99770.94;1087505;54;20098;-82
2023/06/02 12:36:28;;;;;;;4.97;2.90;;;;;;;23.68;34.91;99781.63;1087352;54;20082;-83
2023/06/02 12:37:29;;;;;;;6.20;2.75;;;;;;;23.73;34.41;99778.19;1087306;46;20026;-85
2023/06/02 12:38:34;;;;;;;4.28;2.60;;;;;;;23.89;34.07;99777.44;1087414;54;20031;-85
2023/06/02 12:39:37;;;;;;;4.38;2.50;;;;;;;23.89;33.87;99773.91;1087754;46;20030;-82
2023/06/02 12:40:47;;;;;;;4.03;2.55;;;;;;;23.81;33.85;99770.44;1087408;46;20082;-83
2023/06/02 12:41:48;;;;;;;4.97;3.42;;;;;;;23.56;34.38;99778.06;1087333;54;20026;-82
2023/06/02 12:42:52;;;;;;;4.65;2.78;;;;;;;23.74;34.50;99777.13;1087388;54;20041;-84
2023/06/02 12:45:00;;;;;;;7.05;2.53;;;;;;;23.73;34.47;99779.00;1087309;54;20055;-83
2023/06/02 12:46:03;;;;;;;5.72;2.95;;;;;;;23.72;34.38;99771.88;1087241;47;20027;-86
2023/06/02 12:47:08;;;;;;;4.47;2.67;;;;;;;23.64;34.14;99769.50;1087309;47;20351;-82
2023/06/02 12:48:12;;;;;;;6.13;2.90;;;;;;;23.85;34.08;99776.28;1087422;46;20026;-82
2023/06/02 12:50:22;;;;;;;4.97;2.80;;;;;;;23.82;33.67;99774.84;1089580;39;20874;-84
2023/06/02 12:51:26;;;;;;;4.82;2.90;;;;;;;23.61;33.91;99775.47;1087291;46;20034;-83
2023/06/02 12:52:28;;;;;;;5.72;3.00;;;;;;;23.48;33.73;99771.91;1087100;47;20108;-86
2023/06/02 12:53:36;;;;;;;4.85;2.75;;;;;;;23.47;34.06;99769.41;1087004;47;20122;-83
2023/06/02 12:54:37;;;;;;;4.97;2.92;;;;;;;23.56;34.00;99770.72;1087123;54;20034;-84
2023/06/02 12:55:41;;;;;;;4.40;2.80;;;;;;;23.71;33.69;99770.22;1087633;54;20034;-84
2023/06/02 12:56:43;;;;;;;5.13;2.78;;;;;;;23.80;33.56;99771.53;1087287;47;20055;-83
2023/06/02 12:57:48;;;;;;;3.90;2.50;;;;;;;24.05;32.99;99765.00;1087998;39;20394;-83
2023/06/02 12:58:50;;;;;;;4.60;2.55;;;;;;;24.21;33.05;99771.59;1087259;54;20058;-84
2023/06/02 12:59:54;;;;;;;6.05;3.00;;;;;;;24.16;33.02;99770.66;1087237;47;20031;-86
2023/06/02 13:00:55;;;;;;;6.88;2.85;;;;;;;23.82;33.75;99772.09;1087314;54;20030;-81
2023/06/02 13:02:00;;;;;;;4.25;2.60;;;;;;;23.82;33.47;99766.66;1087060;47;21012;-82
2023/06/02 13:03:04;;;;;;;5.70;2.90;;;;;;;23.87;33.31;99776.84;1087930;39;20711;-84
2023/06/02 13:04:05;;;;;;;5.95;2.58;;;;;;;24.02;33.35;99776.38;1087456;54;20031;-81
2023/06/02 13:05:12;;;;;;;4.93;2.72;;;;;;;24.01;33.41;99773.91;1087359;47;20030;-87
2023/06/02 13:06:20;;;;;;;5.78;2.65;;;;;;;24.02;33.00;99776.38;1087279;54;20064;-83
2023/06/02 13:08:39;;;;;;;7.20;2.90;;;;;;;23.58;33.14;99775.94;1087538;54;20023;-82
2023/06/02 13:09:40;;;;;;;5.45;3.13;;;;;;;23.50;32.63;99769.78;1087210;47;20456;-84
2023/06/02 13:10:44;;;;;;;4.70;2.90;;;;;;;23.50;32.45;99768.91;1087308;54;20042;-84
2023/06/02 13:11:46;;;;;;;5.65;3.30;;;;;;;23.58;32.44;99765.03;1087320;47;20030;-83
2023/06/02 13:15:22;;;;;;;4.75;2.85;;;;;;;23.95;31.83;99754.66;1087121;54;20034;-84
2023/06/02 13:16:23;;;;;;;4.22;2.50;;;;;;;24.08;31.84;99763.66;1087353;54;20031;-83
2023/06/02 13:17:27;;;;;;;6.65;2.38;;;;;;;24.17;32.04;99754.03;1087565;54;20034;-83
2023/06/02 13:18:34;;;;;;;5.25;2.72;;;;;;;24.29;32.07;99754.84;1087418;46;20027;-82
2023/06/02 13:20:39;;;;;;;6.88;3.33;;;;;;;24.13;33.13;99761.88;1087425;54;20067;-82
2023/06/02 13:21:53;;;;;;;6.15;3.15;;;;;;;23.86;33.51;99761.53;1087145;47;20038;-82
2023/06/02 13:22:55;;;;;;;6.68;2.97;;;;;;;23.71;34.13;99759.31;1087422;54;20030;-83
2023/06/02 13:23:59;;;;;;;6.55;2.88;;;;;;;23.90;33.57;99756.47;1086927;47;20030;-81
2023/06/02 13:25:03;;;;;;;6.63;3.10;;;;;;;24.08;33.49;99752.75;1087296;54;20131;-84
2023/06/02 13:26:04;;;;;;;5.43;2.78;;;;;;;24.14;33.30;99749.88;1086870;47;20023;-83
2023/06/02 13:27:08;;;;;;;6.35;3.15;;;;;;;24.24;33.04;99756.63;1087125;54;20030;-81
2023/06/02 13:28:12;;;;;;;5.53;3.22;;;;;;;24.17;33.15;99751.31;1087425;54;20034;-83
2023/06/02 13:29:13;;;;;;;5.63;2.53;;;;;;;24.28;33.03;99746.88;1087433;54;20031;-83
2023/06/02 13:30:19;;;;;;;5.65;2.70;;;;;;;24.29;33.04;99749.38;1087507;54;20038;-82
2023/06/02 13:31:20;;;;;;;4.43;2.80;;;;;;;24.32;33.00;99756.25;1087270;54;20850;-80
2023/06/02 13:32:23;;;;;;;7.75;3.25;;;;;;;24.29;32.86;99757.56;1087440;54;20046;-82
2023/06/02 13:33:25;;;;;;;5.28;2.72;;;;;;;24.20;32.69;99760.91;1086842;47;20026;-83
2023/06/02 13:34:33;;;;;;;5.20;2.95;;;;;;;23.79;33.05;99760.84;1086970;47;20053;-83
2023/06/02 13:35:38;;;;;;;5.60;3.20;;;;;;;23.75;33.13;99755.03;1087052;46;20098;-82
2023/06/02 13:36:42;;;;;;;4.75;2.95;;;;;;;23.68;32.97;99754.34;1086932;46;20082;-83
2023/06/02 13:37:48;;;;;;;8.80;3.17;;;;;;;23.59;33.05;99753.03;1086966;47;20027;-84
2023/06/02 13:38:49;;;;;;;6.10;2.85;;;;;;;23.81;32.81;99748.63;1087649;46;20119;-85
2023/06/02 13:39:54;;;;;;;5.40;2.80;;;;;;;24.06;32.43;99746.69;1086959;54;20039;-85
2023/06/02 13:40:58;;;;;;;5.88;3.10;;;;;;;23.91;32.75;99747.16;1087173;47;20098;-83
2023/06/02 13:42:01;;;;;;;7.25;2.83;;;;;;;24.06;32.56;99744.81;1087062;47;20053;-83
2023/06/02 13:43:04;;;;;;;7.55;3.00;;;;;;;23.88;32.70;99747.66;1086927;47;20038;-82
2023/06/02 13:44:11;;;;;;;6.13;2.72;;;;;;;24.02;32.66;99749.09;1087154;54;20030;-83
2023/06/02 13:45:15;;;;;;;5.15;2.53;;;;;;;24.05;32.27;99743.16;1087182;54;20014;-84
2023/06/02 13:46:16;;;;;;;5.03;3.08;;;;;;;24.08;32.16;99742.69;1086961;54;20030;-84
2023/06/02 13:47:20;;;;;;;5.25;2.80;;;;;;;24.10;32.55;99743.25;1086847;54;20052;-80
2023/06/02 13:48:21;;;;;;;5.45;2.85;;;;;;;23.80;33.25;99744.25;1087110;47;20031;-86
2023/06/02 13:50:26;;;;;;;5.05;3.25;;;;;;;24.11;32.73;99750.38;1087711;54;20017;-85
2023/06/02 13:51:28;;;;;;;5.93;2.85;;;;;;;24.05;32.72;99743.16;1086945;46;20026;-86
2023/06/02 13:52:31;;;;;;;4.40;2.40;;;;;;;24.14;32.60;99741.69;1087088;54;20062;-83
2023/06/02 13:53:35;;;;;;;4.60;2.60;;;;;;;24.34;32.12;99740.44;1090990;39;20616;-83
2023/06/02 13:54:39;;;;;;;3.83;2.33;;;;;;;24.48;32.01;99742.88;1087168;47;20038;-84
2023/06/02 13:55:41;;;;;;;4.45;2.70;;;;;;;24.53;31.88;99742.97;1089059;39;20741;-83
2023/06/02 13:56:46;;;;;;;5.10;2.83;;;;;;;24.14;32.59;99749.03;1087603;54;20038;-83
2023/06/02 13:57:50;;;;;;;5.07;2.88;;;;;;;24.10;32.25;99739.69;1087611;39;20217;-82
2023/06/02 13:58:51;;;;;;;5.35;3.13;;;;;;;23.93;33.21;99728.66;1087116;47;20042;-83
2023/06/02 14:01:03;;;;;;;4.95;3.08;;;;;;;24.19;32.89;99734.66;1087796;54;20030;-83
2023/06/02 14:02:08;;;;;;;5.15;3.28;;;;;;;24.40;32.84;99735.91;1086959;47;20031;-83
2023/06/02 14:03:09;;;;;;;4.72;2.72;;;;;;;24.43;32.97;99730.78;1087019;54;20114;-84
2023/06/02 14:04:13;;;;;;;5.40;2.67;;;;;;;24.53;32.40;99729.31;1086931;47;20022;-85
2023/06/02 14:05:14;;;;;;;5.53;3.13;;;;;;;24.66;32.30;99731.72;1087315;54;20034;-83
2023/06/02 14:06:18;;;;;;;6.07;2.80;;;;;;;24.73;32.13;99735.19;1086860;47;20061;-84
2023/06/02 14:07:22;;;;;;;4.57;2.60;;;;;;;24.95;32.07;99736.38;1086923;47;20066;-83
2023/06/02 14:08:26;;;;;;;6.13;2.78;;;;;;;25.03;31.78;99730.47;1093429;31;21004;-85
2023/06/02 14:09:30;;;;;;;5.10;3.45;;;;;;;25.02;31.66;99734.28;1086731;47;20049;-84
2023/06/02 14:10:35;;;;;;;4.53;2.83;;;;;;;25.23;31.81;99729.97;1086961;54;20031;-83
2023/06/02 14:11:41;;;;;;;5.78;3.20;;;;;;;25.21;31.61;99740.34;1086768;47;21087;-80
2023/06/02 14:12:45;;;;;;;4.68;2.60;;;;;;;25.25;31.74;99733.28;1086947;47;20033;-85